EW8546 Blue Point NY US current weather conditions

sailwx.info

Wind from 360 at 5 knots gusting 11

Air temperature 6.1° C
Dewpoint 1.2° C

Last reported at 2019-Dec-06 17:02 UTC.
Time now 2019-Dec-06 17:41 UTC

Location: N 40°45' W 073°03'.
View on Google Maps.

See reports from other nearby stations

  
Tides and Currents Weather Stations Pressure Air Temp Water Temp Dewpoint Dewpoint Depression Visibility Wind Speed Wind Dir Waves Ship Positions
date/time (UTC)wind fromknots sea level pressurealtimeterstation pressurevisibilityair tempwater tempwave heightnotes
2019-Dec-06 17:02 360 5 gusting 11 6.1
2019-Dec-06 16:47 240 4 gusting 11 6.1
2019-Dec-06 16:31 237 3 gusting 11 5.6
2019-Dec-06 16:16 312 1 gusting 9 5.6
2019-Dec-06 16:01 247 3 gusting 11 5.0
2019-Dec-06 15:46 262 2 gusting 10 5.0
2019-Dec-06 15:31 236 4 gusting 7 4.4
2019-Dec-06 15:16 301 2 gusting 10 4.4
2019-Dec-06 15:01 327 5 gusting 12 4.4
2019-Dec-06 14:46 277 0 gusting 5 3.9
2019-Dec-06 14:30 287 3.3
2019-Dec-06 14:16 313 2.8
2019-Dec-06 14:01 317 2 gusting 6 2.2
2019-Dec-06 13:45 270 2.2
2019-Dec-06 13:30 288 1.1
2019-Dec-06 13:15 276 1.1
2019-Dec-06 13:00 285 0.6
2019-Dec-06 12:45 285 0.6
2019-Dec-06 12:30 285 0.6
2019-Dec-06 12:15 267 0.6
2019-Dec-06 12:01
2019-Dec-06 11:45
2019-Dec-06 11:30
2019-Dec-06 11:17
2019-Dec-06 11:01
2019-Dec-06 10:46
2019-Dec-06 10:31
2019-Dec-06 10:16
2019-Dec-06 10:01
2019-Dec-06 09:46
2019-Dec-06 09:31
2019-Dec-06 09:16
2019-Dec-06 09:00
2019-Dec-06 08:45
2019-Dec-06 08:30
2019-Dec-06 08:15
2019-Dec-06 08:00
2019-Dec-06 07:46
2019-Dec-06 07:31
2019-Dec-06 07:16
2019-Dec-06 07:01 325 1 gusting 9 1.1
2019-Dec-06 06:46 321 3 gusting 12 1.1
2019-Dec-06 06:30 340 0 gusting 9 1.1
2019-Dec-06 06:16 006 3 gusting 12 1.1
2019-Dec-06 06:00 325 3 gusting 12 1.7
2019-Dec-06 05:46 336 6 gusting 16 1.7
2019-Dec-06 05:30 333 4 gusting 13 1.7
2019-Dec-06 05:15 356 3 gusting 11 1.7
2019-Dec-06 05:00 350 7 gusting 15 1.7
2019-Dec-06 04:45 321 5 gusting 15 2.2
2019-Dec-06 04:30 333 8 gusting 16 2.2
2019-Dec-06 04:15 309 4 gusting 14 2.2
2019-Dec-06 04:00 335 7 gusting 16 2.2
2019-Dec-06 03:45 349 6 gusting 19 2.2
2019-Dec-06 03:30 323 8 gusting 17 2.2
2019-Dec-06 03:15 323 4 gusting 14 2.2
2019-Dec-06 03:00 345 6 gusting 13 2.2
2019-Dec-06 02:46 354 6 gusting 15 2.2
2019-Dec-06 02:32 321 8 gusting 15 2.2
2019-Dec-06 02:18 333 5 gusting 14 2.2
2019-Dec-06 02:01 340 7 gusting 17 2.2
2019-Dec-06 01:46 328 7 gusting 13 2.8
2019-Dec-06 01:31 333 5 gusting 13 2.8
2019-Dec-06 01:16 345 6 gusting 17 3.3
2019-Dec-06 01:01 332 5 gusting 21 3.3
2019-Dec-06 00:47 343 6 gusting 19 3.3
2019-Dec-06 00:30 321 3 gusting 14 3.3
2019-Dec-06 00:16 328 1 gusting 10 3.3
2019-Dec-06 00:01 308 6 gusting 15 3.3
2019-Dec-05 23:46 359 3 gusting 14 3.3
2019-Dec-05 23:30 110 6 gusting 13 3.3
2019-Dec-05 23:15 309 6 gusting 18 3.9
2019-Dec-05 23:00 337 9 gusting 19 3.3
2019-Dec-05 22:45 347 1 gusting 14 3.3
2019-Dec-05 22:31 327 6 gusting 14 3.3
2019-Dec-05 22:15 285 6 gusting 13 3.9
2019-Dec-05 22:00 336 6 gusting 13 3.9
2019-Dec-05 21:45 360 6 gusting 14 3.9
2019-Dec-05 21:30 357 6 gusting 18 4.4
2019-Dec-05 21:15 335 7 gusting 18 4.4
2019-Dec-05 21:00 312 7 gusting 17 4.4
2019-Dec-05 20:45 333 10 gusting 22 4.4
2019-Dec-05 20:30 277 9 gusting 20 4.4
2019-Dec-05 20:15 295 4 gusting 16 5.0
2019-Dec-05 20:01 321 5 gusting 20 5.0
2019-Dec-05 19:47 314 6 gusting 26 5.0
2019-Dec-05 19:32 317 8 gusting 24 5.0
2019-Dec-05 19:16 347 13 gusting 25 5.0
2019-Dec-05 19:01 326 13 gusting 26 5.0
2019-Dec-05 18:47 333 9 gusting 27 5.0
2019-Dec-05 18:31 307 7 gusting 24 5.0
2019-Dec-05 18:16 020 11 gusting 25 5.0
2019-Dec-05 18:01 359 9 gusting 27 5.0
2019-Dec-05 17:46 312 11 gusting 23 5.0
2019-Dec-05 17:31 340 11 gusting 21 5.6
2019-Dec-05 17:16 353 7 gusting 20 5.6
2019-Dec-05 17:01 339 11 gusting 22 5.6
2019-Dec-05 16:46 354 11 gusting 23 5.6
2019-Dec-05 16:30 308 4 gusting 19 6.1
2019-Dec-05 16:15 321 8 gusting 17 6.1
2019-Dec-05 16:00 297 7 gusting 20 5.6
2019-Dec-05 15:46 312 8 gusting 17 5.6
2019-Dec-05 15:30 001 6 gusting 19 5.6
2019-Dec-05 15:15 358 5 gusting 16 5.6
2019-Dec-05 15:00 015 8 gusting 19 5.6
2019-Dec-05 14:45 339 4 gusting 15 5.0
2019-Dec-05 14:30 329 6 gusting 16 5.0
2019-Dec-05 14:15 333 6 gusting 19 4.4
2019-Dec-05 14:00 354 3 gusting 10 3.9
2019-Dec-05 13:45 307 5 gusting 14 3.9
2019-Dec-05 13:31 327 2 gusting 7 3.3
2019-Dec-05 13:18 319 0 gusting 7 2.2
2019-Dec-05 13:02 325 0 gusting 6 1.7
2019-Dec-05 12:46 325 1.7
2019-Dec-05 12:31 333 1.7
2019-Dec-05 12:17 325 1.7
2019-Dec-05 12:01
2019-Dec-05 11:46
2019-Dec-05 11:31
2019-Dec-05 11:16
2019-Dec-05 11:00
2019-Dec-05 10:45
2019-Dec-05 10:30
2019-Dec-05 10:15
2019-Dec-05 10:00
2019-Dec-05 09:45
2019-Dec-05 09:31
2019-Dec-05 09:18
2019-Dec-05 09:02
2019-Dec-05 08:47
2019-Dec-05 08:31
2019-Dec-05 08:16
2019-Dec-05 08:01
2019-Dec-05 07:45
2019-Dec-05 07:31
2019-Dec-05 07:15 326 2.2
2019-Dec-05 07:00 295 1.7
2019-Dec-05 06:45 309 2.2
2019-Dec-05 06:30 308 2.2
2019-Dec-05 06:15 309 2.2
2019-Dec-05 06:00 308 2.2
2019-Dec-05 05:45 323 2.8
2019-Dec-05 05:30 308 0 gusting 6 2.8
2019-Dec-05 05:15 332 0 gusting 6 2.8
2019-Dec-05 04:49 356 2.8
2019-Dec-05 04:32 317 0 gusting 4 2.8
2019-Dec-05 04:16 309 1 gusting 6 2.8
2019-Dec-05 04:02 309 2.8
2019-Dec-05 03:46 301 0 gusting 6 2.8
2019-Dec-05 03:31 312 0 gusting 6 2.8
2019-Dec-05 03:17 337 2.8
2019-Dec-05 03:02 298 2.8
2019-Dec-05 02:47 321 0 gusting 5 2.8
2019-Dec-05 02:31 308 2.8
2019-Dec-05 02:17 302 2.8
2019-Dec-05 02:01 314 2.8
2019-Dec-05 01:46 317 2.8
2019-Dec-05 01:31 312 2.8
2019-Dec-05 01:16 331 2.8
2019-Dec-05 01:01 315 2.8
2019-Dec-05 00:46 308 2.8
2019-Dec-05 00:31 300 2.2
2019-Dec-05 00:17 290 2.2
2019-Dec-05 00:01 289 2.2
2019-Dec-04 23:47 297 2.2
2019-Dec-04 23:32 266 2.2
2019-Dec-04 23:16 257 2.8
2019-Dec-04 23:01 302 2.8
2019-Dec-04 22:47 302 2.8
2019-Dec-04 22:31 298 2.8
2019-Dec-04 22:16 317 2.8
2019-Dec-04 22:01 311 2.8
2019-Dec-04 21:46 304 3.3
2019-Dec-04 21:31 298 3.3
2019-Dec-04 21:16 288 3.3
2019-Dec-04 21:00 312 3.3
2019-Dec-04 20:46 311 3.3
2019-Dec-04 20:31 335 0 gusting 5 3.3
2019-Dec-04 20:16 313 3.3
2019-Dec-04 20:01 326 0 gusting 5 3.3
2019-Dec-04 19:45 338 2 gusting 6 3.3
2019-Dec-04 19:31 298 3.3
2019-Dec-04 19:16 317 0 gusting 9 3.3
2019-Dec-04 19:00 004 2 gusting 8 3.3
2019-Dec-04 18:45 326 2 gusting 6 3.9
2019-Dec-04 18:30 269 0 gusting 4 3.3
2019-Dec-04 18:15 297 2 gusting 6 3.9
2019-Dec-04 18:00 309 2 gusting 7 3.9
2019-Dec-04 17:45 305 2 gusting 8 3.9
2019-Dec-04 17:30 314 0 gusting 6 3.9
2019-Dec-04 17:15 329 0 gusting 6 3.9
2019-Dec-04 17:00 330 0 gusting 6 3.9